Novinger, Missouri
Current Conditions -  °F | °C
As of 7:55 AM on Saturday 22 Nov 2014 (Local Time) from KIRK Reporting Station
Overcast Overcast  
Wind Chill: 51°   Ceiling: 1200
Heat Index: 51°   Visibility: 9mi
Dew Point: 47°   Wind: 12mph
Humidity: 86%   Direction: 200°SSW
Pressure: 29.96"   Gusts: NA
Location:  40.23°N, 92.71°W
Report Text: KIRK 221355Z AUTO 20010KT 9SM OVC012 11/08 A2996 RMK AO2 SLP153 T01060083
Loading
Personal Weather Stations






























Interactive Weather Map New forecast layout! Learn more

10-Day Weather Forecast

Advertisements
Track Severe Weather on mobile